KUIN/UIN METAR and TAF weather

Enter ICAO airport designator
Station Type Date Time Source
KUIN METAR 2022/08/12 15:54 UTC NOAA

KUIN 121554Z AUTO 12007KT 10SM BKN039 23/14 A3024 RMK AO2 SLP235 T02330139


Station Type Date Time Source
KUIN Decoded METAR 2022/08/12 15:54 UTC NOAA

QUINCY MUNI. BALDWIN FIELD, IL, United States (KUIN) 39-56N 091-12W
Aug 12, 2022 - 11:54 AM EDT / 2022.08.12 1554 UTC
Wind: from the ESE (120 degrees) at 8 MPH (7 KT):0
Visibility: 10 mile(s):0
Sky conditions: mostly cloudy
Temperature: 73.9 F (23.3 C)
Dew Point: 57.0 F (13.9 C)
Relative Humidity: 55%
Pressure (altimeter): 30.24 in. Hg (1024 hPa)
ob: KUIN 121554Z AUTO 12007KT 10SM BKN039 23/14 A3024 RMK AO2 SLP235 T02330139
cycle: 16

Station Type Date Time Source
KUIN TAF 2022/08/12 12:22 UTC NOAA

TAF KUIN 121120Z 1212/1312 10007KT P6SM SCT100
FM130000 13006KT P6SM SCT250

Example: see airport list